Kerrobert, Canada
Current Conditions -  °F | °C
As of 6:00 AM on Sunday 23 Nov 2014 (Local Time) from CYKY Reporting Station
Light Snow Light Snow  
Wind Chill:   Ceiling: 800
Heat Index: 19°   Visibility: 3mi
Dew Point: 16°   Wind: 13mph
Humidity: 86%   Direction: 310°NW
Pressure: 29.72"   Gusts: NA
Location:  51.92°N, 109.13°W
Report Text: CYKY 231200Z 31011KT 3SM -SN OVC008 M07/M09 A2972 RMK SC8 SNW CVR/MUCH LOOSE SLP100
Loading
Personal Weather Stations






























Interactive Weather Map New forecast layout! Learn more

10-Day Weather Forecast

Advertisements
Track Severe Weather on mobile